sensor_id;sensor_type;location;lat;lon;timestamp;P1;durP1;ratioP1;P2;durP2;ratioP2
62463;SDS011;48512;48.552;9.380;2023-05-10T00:01:17;0.45;;;0.43;;
62463;SDS011;48512;48.552;9.380;2023-05-10T00:03:43;0.50;;;0.50;;
62463;SDS011;48512;48.552;9.380;2023-05-10T00:06:09;0.40;;;0.40;;
62463;SDS011;48512;48.552;9.380;2023-05-10T00:08:35;0.50;;;0.40;;
62463;SDS011;48512;48.552;9.380;2023-05-10T00:11:01;1.30;;;0.40;;
62463;SDS011;48512;48.552;9.380;2023-05-10T00:13:27;0.38;;;0.38;;
62463;SDS011;48512;48.552;9.380;2023-05-10T00:15:53;2.75;;;0.57;;
62463;SDS011;48512;48.552;9.380;2023-05-10T00:18:19;0.40;;;0.40;;
62463;SDS011;48512;48.552;9.380;2023-05-10T00:20:46;0.47;;;0.40;;
62463;SDS011;48512;48.552;9.380;2023-05-10T00:23:12;0.98;;;0.50;;
62463;SDS011;48512;48.552;9.380;2023-05-10T00:25:38;1.45;;;0.40;;
62463;SDS011;48512;48.552;9.380;2023-05-10T00:28:04;0.50;;;0.50;;
62463;SDS011;48512;48.552;9.380;2023-05-10T00:30:30;0.43;;;0.40;;
62463;SDS011;48512;48.552;9.380;2023-05-10T00:32:56;1.85;;;0.50;;
62463;SDS011;48512;48.552;9.380;2023-05-10T00:35:22;0.68;;;0.43;;
62463;SDS011;48512;48.552;9.380;2023-05-10T00:37:49;2.70;;;0.60;;
62463;SDS011;48512;48.552;9.380;2023-05-10T00:40:15;0.80;;;0.77;;
62463;SDS011;48512;48.552;9.380;2023-05-10T00:45:10;0.73;;;0.50;;
62463;SDS011;48512;48.552;9.380;2023-05-10T00:47:37;0.85;;;0.50;;
62463;SDS011;48512;48.552;9.380;2023-05-10T00:50:03;2.08;;;1.02;;
62463;SDS011;48512;48.552;9.380;2023-05-10T00:52:31;1.05;;;0.90;;
62463;SDS011;48512;48.552;9.380;2023-05-10T00:54:58;1.85;;;1.00;;
62463;SDS011;48512;48.552;9.380;2023-05-10T00:57:24;1.50;;;0.70;;
62463;SDS011;48512;48.552;9.380;2023-05-10T00:59:50;2.05;;;1.05;;
62463;SDS011;48512;48.552;9.380;2023-05-10T01:02:17;2.30;;;1.23;;
62463;SDS011;48512;48.552;9.380;2023-05-10T01:04:43;2.17;;;0.93;;
62463;SDS011;48512;48.552;9.380;2023-05-10T01:07:10;1.33;;;0.80;;
62463;SDS011;48512;48.552;9.380;2023-05-10T01:09:36;1.08;;;0.70;;
62463;SDS011;48512;48.552;9.380;2023-05-10T01:12:03;1.40;;;0.70;;
62463;SDS011;48512;48.552;9.380;2023-05-10T01:14:32;0.70;;;0.70;;
62463;SDS011;48512;48.552;9.380;2023-05-10T01:17:00;1.13;;;0.63;;
62463;SDS011;48512;48.552;9.380;2023-05-10T01:19:27;0.77;;;0.70;;
62463;SDS011;48512;48.552;9.380;2023-05-10T01:22:03;2.88;;;0.95;;
62463;SDS011;48512;48.552;9.380;2023-05-10T01:33:35;1.85;;;1.00;;
62463;SDS011;48512;48.552;9.380;2023-05-10T01:36:12;0.70;;;0.70;;
62463;SDS011;48512;48.552;9.380;2023-05-10T01:39:01;1.05;;;0.80;;
62463;SDS011;48512;48.552;9.380;2023-05-10T01:46:48;0.88;;;0.70;;
62463;SDS011;48512;48.552;9.380;2023-05-10T01:49:21;0.70;;;0.70;;
62463;SDS011;48512;48.552;9.380;2023-05-10T01:51:53;1.00;;;0.77;;
62463;SDS011;48512;48.552;9.380;2023-05-10T01:54:23;1.42;;;0.80;;
62463;SDS011;48512;48.552;9.380;2023-05-10T01:56:52;1.25;;;0.80;;
62463;SDS011;48512;48.552;9.380;2023-05-10T01:59:25;0.60;;;0.60;;
62463;SDS011;48512;48.552;9.380;2023-05-10T02:01:56;0.60;;;0.60;;
62463;SDS011;48512;48.552;9.380;2023-05-10T02:04:24;1.15;;;0.77;;
62463;SDS011;48512;48.552;9.380;2023-05-10T02:06:52;0.68;;;0.60;;
62463;SDS011;48512;48.552;9.380;2023-05-10T02:09:20;1.70;;;0.60;;
62463;SDS011;48512;48.552;9.380;2023-05-10T02:11:48;0.57;;;0.57;;
62463;SDS011;48512;48.552;9.380;2023-05-10T02:14:15;0.63;;;0.60;;
62463;SDS011;48512;48.552;9.380;2023-05-10T02:16:42;0.73;;;0.70;;
62463;SDS011;48512;48.552;9.380;2023-05-10T02:19:09;0.60;;;0.60;;
62463;SDS011;48512;48.552;9.380;2023-05-10T02:21:37;1.73;;;0.60;;
62463;SDS011;48512;48.552;9.380;2023-05-10T02:24:05;0.70;;;0.70;;
62463;SDS011;48512;48.552;9.380;2023-05-10T02:26:33;1.27;;;0.70;;
62463;SDS011;48512;48.552;9.380;2023-05-10T02:29:02;0.68;;;0.68;;
62463;SDS011;48512;48.552;9.380;2023-05-10T02:31:32;0.80;;;0.67;;
62463;SDS011;48512;48.552;9.380;2023-05-10T02:36:26;0.93;;;0.55;;
62463;SDS011;48512;48.552;9.380;2023-05-10T02:38:53;1.67;;;0.60;;
62463;SDS011;48512;48.552;9.380;2023-05-10T02:41:20;2.20;;;0.60;;
62463;SDS011;48512;48.552;9.380;2023-05-10T02:43:51;1.17;;;0.60;;
62463;SDS011;48512;48.552;9.380;2023-05-10T02:46:19;0.70;;;0.50;;
62463;SDS011;48512;48.552;9.380;2023-05-10T02:48:45;1.02;;;0.80;;
62463;SDS011;48512;48.552;9.380;2023-05-10T02:51:11;0.60;;;0.60;;
62463;SDS011;48512;48.552;9.380;2023-05-10T02:53:41;1.30;;;0.60;;
62463;SDS011;48512;48.552;9.380;2023-05-10T02:56:11;0.80;;;0.80;;
62463;SDS011;48512;48.552;9.380;2023-05-10T02:58:41;0.70;;;0.68;;
62463;SDS011;48512;48.552;9.380;2023-05-10T03:01:07;2.22;;;0.80;;
62463;SDS011;48512;48.552;9.380;2023-05-10T03:03:33;0.77;;;0.70;;
62463;SDS011;48512;48.552;9.380;2023-05-10T03:05:59;1.15;;;0.70;;
62463;SDS011;48512;48.552;9.380;2023-05-10T03:08:25;0.70;;;0.70;;
62463;SDS011;48512;48.552;9.380;2023-05-10T03:11:16;0.95;;;0.90;;
62463;SDS011;48512;48.552;9.380;2023-05-10T03:16:19;1.02;;;0.88;;
62463;SDS011;48512;48.552;9.380;2023-05-10T03:19:06;1.20;;;0.70;;
62463;SDS011;48512;48.552;9.380;2023-05-10T03:21:37;1.10;;;1.00;;
62463;SDS011;48512;48.552;9.380;2023-05-10T03:24:08;0.60;;;0.60;;
62463;SDS011;48512;48.552;9.380;2023-05-10T03:26:37;0.93;;;0.80;;
62463;SDS011;48512;48.552;9.380;2023-05-10T03:29:13;1.10;;;1.00;;
62463;SDS011;48512;48.552;9.380;2023-05-10T03:31:40;0.95;;;0.95;;
62463;SDS011;48512;48.552;9.380;2023-05-10T03:34:06;1.85;;;0.90;;
62463;SDS011;48512;48.552;9.380;2023-05-10T03:36:33;1.23;;;1.10;;
62463;SDS011;48512;48.552;9.380;2023-05-10T03:38:59;1.48;;;0.90;;
62463;SDS011;48512;48.552;9.380;2023-05-10T03:41:26;2.55;;;0.90;;
62463;SDS011;48512;48.552;9.380;2023-05-10T03:43:53;1.10;;;1.00;;
62463;SDS011;48512;48.552;9.380;2023-05-10T03:46:19;2.92;;;1.13;;
62463;SDS011;48512;48.552;9.380;2023-05-10T03:48:45;1.50;;;1.20;;
62463;SDS011;48512;48.552;9.380;2023-05-10T03:51:11;3.05;;;1.10;;
62463;SDS011;48512;48.552;9.380;2023-05-10T03:53:39;1.30;;;1.10;;
62463;SDS011;48512;48.552;9.380;2023-05-10T03:56:05;1.20;;;1.10;;
62463;SDS011;48512;48.552;9.380;2023-05-10T03:58:31;2.65;;;1.45;;
62463;SDS011;48512;48.552;9.380;2023-05-10T04:00:58;1.50;;;1.20;;
62463;SDS011;48512;48.552;9.380;2023-05-10T04:03:24;1.50;;;1.33;;
62463;SDS011;48512;48.552;9.380;2023-05-10T04:06:01;3.45;;;1.20;;
62463;SDS011;48512;48.552;9.380;2023-05-10T04:08:27;3.35;;;1.83;;
62463;SDS011;48512;48.552;9.380;2023-05-10T04:10:54;3.80;;;1.92;;
62463;SDS011;48512;48.552;9.380;2023-05-10T04:13:20;3.60;;;1.50;;
62463;SDS011;48512;48.552;9.380;2023-05-10T04:15:47;1.70;;;1.20;;
62463;SDS011;48512;48.552;9.380;2023-05-10T04:18:13;1.40;;;1.30;;
62463;SDS011;48512;48.552;9.380;2023-05-10T04:20:39;1.50;;;1.40;;
62463;SDS011;48512;48.552;9.380;2023-05-10T04:23:05;1.35;;;1.25;;
62463;SDS011;48512;48.552;9.380;2023-05-10T04:25:33;1.38;;;1.23;;
62463;SDS011;48512;48.552;9.380;2023-05-10T04:28:00;1.40;;;1.30;;
62463;SDS011;48512;48.552;9.380;2023-05-10T04:30:26;2.58;;;1.30;;
62463;SDS011;48512;48.552;9.380;2023-05-10T04:32:54;1.35;;;1.20;;
62463;SDS011;48512;48.552;9.380;2023-05-10T04:35:21;2.75;;;1.45;;
62463;SDS011;48512;48.552;9.380;2023-05-10T04:37:47;1.95;;;1.45;;
62463;SDS011;48512;48.552;9.380;2023-05-10T04:40:13;2.83;;;1.20;;
62463;SDS011;48512;48.552;9.380;2023-05-10T04:42:39;1.30;;;1.20;;
62463;SDS011;48512;48.552;9.380;2023-05-10T04:45:07;1.73;;;1.27;;
62463;SDS011;48512;48.552;9.380;2023-05-10T04:47:33;1.45;;;1.35;;
62463;SDS011;48512;48.552;9.380;2023-05-10T04:49:59;1.85;;;1.50;;
62463;SDS011;48512;48.552;9.380;2023-05-10T04:52:25;1.20;;;1.10;;
62463;SDS011;48512;48.552;9.380;2023-05-10T04:54:51;3.60;;;1.40;;
62463;SDS011;48512;48.552;9.380;2023-05-10T04:57:18;1.42;;;1.20;;
62463;SDS011;48512;48.552;9.380;2023-05-10T04:59:44;1.63;;;1.33;;
62463;SDS011;48512;48.552;9.380;2023-05-10T05:02:10;1.65;;;1.45;;
62463;SDS011;48512;48.552;9.380;2023-05-10T05:04:36;7.30;;;1.23;;
62463;SDS011;48512;48.552;9.380;2023-05-10T05:07:02;2.03;;;1.40;;
62463;SDS011;48512;48.552;9.380;2023-05-10T05:09:28;1.50;;;1.40;;
62463;SDS011;48512;48.552;9.380;2023-05-10T05:11:54;1.45;;;1.17;;
62463;SDS011;48512;48.552;9.380;2023-05-10T05:14:21;1.20;;;1.10;;
62463;SDS011;48512;48.552;9.380;2023-05-10T05:16:47;1.52;;;1.38;;
62463;SDS011;48512;48.552;9.380;2023-05-10T05:19:13;1.52;;;0.90;;
62463;SDS011;48512;48.552;9.380;2023-05-10T05:21:39;2.20;;;1.20;;
62463;SDS011;48512;48.552;9.380;2023-05-10T05:24:05;1.30;;;1.20;;
62463;SDS011;48512;48.552;9.380;2023-05-10T05:26:32;1.35;;;1.13;;
62463;SDS011;48512;48.552;9.380;2023-05-10T05:28:58;1.65;;;1.30;;
62463;SDS011;48512;48.552;9.380;2023-05-10T05:31:25;1.75;;;1.38;;
62463;SDS011;48512;48.552;9.380;2023-05-10T05:33:51;1.65;;;1.40;;
62463;SDS011;48512;48.552;9.380;2023-05-10T05:36:17;1.30;;;1.20;;
62463;SDS011;48512;48.552;9.380;2023-05-10T05:38:43;5.70;;;3.10;;
62463;SDS011;48512;48.552;9.380;2023-05-10T05:41:09;3.90;;;2.50;;
62463;SDS011;48512;48.552;9.380;2023-05-10T05:43:35;2.65;;;1.40;;
62463;SDS011;48512;48.552;9.380;2023-05-10T05:46:01;1.52;;;1.40;;
62463;SDS011;48512;48.552;9.380;2023-05-10T05:48:29;2.20;;;1.80;;
62463;SDS011;48512;48.552;9.380;2023-05-10T05:50:56;7.25;;;4.07;;
62463;SDS011;48512;48.552;9.380;2023-05-10T05:53:22;1.75;;;1.60;;
62463;SDS011;48512;48.552;9.380;2023-05-10T05:55:52;3.13;;;2.05;;
62463;SDS011;48512;48.552;9.380;2023-05-10T05:58:20;2.85;;;1.50;;
62463;SDS011;48512;48.552;9.380;2023-05-10T06:00:47;2.55;;;1.50;;
62463;SDS011;48512;48.552;9.380;2023-05-10T06:03:13;2.17;;;1.67;;
62463;SDS011;48512;48.552;9.380;2023-05-10T06:05:40;3.55;;;1.60;;
62463;SDS011;48512;48.552;9.380;2023-05-10T06:08:06;1.50;;;1.40;;
62463;SDS011;48512;48.552;9.380;2023-05-10T06:10:32;3.60;;;1.88;;
62463;SDS011;48512;48.552;9.380;2023-05-10T06:12:58;2.08;;;1.85;;
62463;SDS011;48512;48.552;9.380;2023-05-10T06:15:24;2.65;;;1.73;;
62463;SDS011;48512;48.552;9.380;2023-05-10T06:17:50;3.88;;;1.70;;
62463;SDS011;48512;48.552;9.380;2023-05-10T06:20:17;3.15;;;1.83;;
62463;SDS011;48512;48.552;9.380;2023-05-10T06:22:43;2.88;;;1.95;;
62463;SDS011;48512;48.552;9.380;2023-05-10T06:25:09;5.65;;;3.00;;
62463;SDS011;48512;48.552;9.380;2023-05-10T06:27:37;3.78;;;2.05;;
62463;SDS011;48512;48.552;9.380;2023-05-10T06:30:03;6.88;;;3.20;;
62463;SDS011;48512;48.552;9.380;2023-05-10T06:32:31;2.35;;;1.88;;
62463;SDS011;48512;48.552;9.380;2023-05-10T06:34:57;3.03;;;1.95;;
62463;SDS011;48512;48.552;9.380;2023-05-10T06:37:23;2.20;;;1.50;;
62463;SDS011;48512;48.552;9.380;2023-05-10T06:39:49;2.63;;;1.80;;
62463;SDS011;48512;48.552;9.380;2023-05-10T06:42:15;2.10;;;1.90;;
62463;SDS011;48512;48.552;9.380;2023-05-10T06:44:45;1.77;;;1.60;;
62463;SDS011;48512;48.552;9.380;2023-05-10T06:47:11;1.60;;;1.50;;
62463;SDS011;48512;48.552;9.380;2023-05-10T06:49:37;1.70;;;1.60;;
62463;SDS011;48512;48.552;9.380;2023-05-10T06:52:03;2.30;;;1.50;;
62463;SDS011;48512;48.552;9.380;2023-05-10T06:54:30;1.45;;;1.30;;
62463;SDS011;48512;48.552;9.380;2023-05-10T06:56:56;2.58;;;1.50;;
62463;SDS011;48512;48.552;9.380;2023-05-10T06:59:22;1.42;;;1.33;;
62463;SDS011;48512;48.552;9.380;2023-05-10T07:01:48;5.03;;;1.67;;
62463;SDS011;48512;48.552;9.380;2023-05-10T07:04:14;2.30;;;1.55;;
62463;SDS011;48512;48.552;9.380;2023-05-10T07:06:40;2.42;;;1.48;;
62463;SDS011;48512;48.552;9.380;2023-05-10T07:09:06;1.95;;;1.67;;
62463;SDS011;48512;48.552;9.380;2023-05-10T07:11:33;1.92;;;1.67;;
62463;SDS011;48512;48.552;9.380;2023-05-10T07:13:59;1.60;;;1.50;;
62463;SDS011;48512;48.552;9.380;2023-05-10T07:16:25;1.98;;;1.60;;
62463;SDS011;48512;48.552;9.380;2023-05-10T07:18:52;5.03;;;2.10;;
62463;SDS011;48512;48.552;9.380;2023-05-10T07:21:19;1.98;;;1.40;;
62463;SDS011;48512;48.552;9.380;2023-05-10T07:23:45;2.50;;;1.48;;
62463;SDS011;48512;48.552;9.380;2023-05-10T07:26:11;3.00;;;1.95;;
62463;SDS011;48512;48.552;9.380;2023-05-10T07:28:37;4.80;;;2.15;;
62463;SDS011;48512;48.552;9.380;2023-05-10T07:31:04;1.67;;;1.50;;
62463;SDS011;48512;48.552;9.380;2023-05-10T07:33:30;1.90;;;1.70;;
62463;SDS011;48512;48.552;9.380;2023-05-10T07:35:57;2.03;;;1.10;;
62463;SDS011;48512;48.552;9.380;2023-05-10T07:38:23;1.27;;;1.17;;
62463;SDS011;48512;48.552;9.380;2023-05-10T07:40:49;1.40;;;1.30;;
62463;SDS011;48512;48.552;9.380;2023-05-10T07:43:15;2.50;;;1.25;;
62463;SDS011;48512;48.552;9.380;2023-05-10T07:45:41;1.52;;;1.30;;
62463;SDS011;48512;48.552;9.380;2023-05-10T07:48:07;1.40;;;1.30;;
62463;SDS011;48512;48.552;9.380;2023-05-10T07:50:34;1.42;;;1.33;;
62463;SDS011;48512;48.552;9.380;2023-05-10T07:53:00;1.00;;;1.00;;
62463;SDS011;48512;48.552;9.380;2023-05-10T07:55:26;1.35;;;1.25;;
62463;SDS011;48512;48.552;9.380;2023-05-10T07:57:52;1.20;;;1.00;;
62463;SDS011;48512;48.552;9.380;2023-05-10T08:00:19;1.15;;;1.00;;
62463;SDS011;48512;48.552;9.380;2023-05-10T08:02:45;3.47;;;1.60;;
62463;SDS011;48512;48.552;9.380;2023-05-10T08:05:12;4.18;;;1.30;;
62463;SDS011;48512;48.552;9.380;2023-05-10T08:07:39;1.27;;;1.17;;
62463;SDS011;48512;48.552;9.380;2023-05-10T08:10:05;1.02;;;0.93;;
62463;SDS011;48512;48.552;9.380;2023-05-10T08:12:32;1.60;;;1.00;;
62463;SDS011;48512;48.552;9.380;2023-05-10T08:14:58;3.53;;;0.90;;
62463;SDS011;48512;48.552;9.380;2023-05-10T08:17:24;2.30;;;1.00;;
62463;SDS011;48512;48.552;9.380;2023-05-10T08:19:50;4.25;;;1.25;;
62463;SDS011;48512;48.552;9.380;2023-05-10T08:22:16;1.15;;;0.80;;
62463;SDS011;48512;48.552;9.380;2023-05-10T08:24:42;0.80;;;0.80;;
62463;SDS011;48512;48.552;9.380;2023-05-10T08:27:09;0.90;;;0.90;;
62463;SDS011;48512;48.552;9.380;2023-05-10T08:29:35;2.22;;;0.80;;
62463;SDS011;48512;48.552;9.380;2023-05-10T08:32:01;1.17;;;1.08;;
62463;SDS011;48512;48.552;9.380;2023-05-10T08:34:27;1.40;;;1.05;;
62463;SDS011;48512;48.552;9.380;2023-05-10T08:36:53;1.23;;;1.13;;
62463;SDS011;48512;48.552;9.380;2023-05-10T08:39:19;3.95;;;1.30;;
62463;SDS011;48512;48.552;9.380;2023-05-10T08:41:46;4.05;;;0.98;;
62463;SDS011;48512;48.552;9.380;2023-05-10T08:44:13;2.45;;;1.15;;
62463;SDS011;48512;48.552;9.380;2023-05-10T08:46:40;3.53;;;1.10;;
62463;SDS011;48512;48.552;9.380;2023-05-10T08:49:10;1.23;;;1.13;;
62463;SDS011;48512;48.552;9.380;2023-05-10T08:51:44;1.15;;;1.05;;
62463;SDS011;48512;48.552;9.380;2023-05-10T08:54:15;1.42;;;1.20;;
62463;SDS011;48512;48.552;9.380;2023-05-10T08:56:41;1.10;;;0.90;;
62463;SDS011;48512;48.552;9.380;2023-05-10T08:59:07;1.75;;;1.10;;
62463;SDS011;48512;48.552;9.380;2023-05-10T09:01:35;1.67;;;1.05;;
62463;SDS011;48512;48.552;9.380;2023-05-10T09:04:02;2.55;;;1.20;;
62463;SDS011;48512;48.552;9.380;2023-05-10T09:06:29;1.90;;;1.00;;
62463;SDS011;48512;48.552;9.380;2023-05-10T09:08:56;1.42;;;1.00;;
62463;SDS011;48512;48.552;9.380;2023-05-10T09:11:22;2.17;;;1.00;;
62463;SDS011;48512;48.552;9.380;2023-05-10T09:13:50;1.58;;;1.20;;
62463;SDS011;48512;48.552;9.380;2023-05-10T09:16:17;5.78;;;1.30;;
62463;SDS011;48512;48.552;9.380;2023-05-10T09:18:43;4.13;;;1.30;;
62463;SDS011;48512;48.552;9.380;2023-05-10T09:21:09;2.05;;;1.25;;
62463;SDS011;48512;48.552;9.380;2023-05-10T09:23:35;2.47;;;1.00;;
62463;SDS011;48512;48.552;9.380;2023-05-10T09:26:03;2.75;;;0.93;;
62463;SDS011;48512;48.552;9.380;2023-05-10T09:30:59;1.75;;;1.38;;
62463;SDS011;48512;48.552;9.380;2023-05-10T09:33:25;2.00;;;1.10;;
62463;SDS011;48512;48.552;9.380;2023-05-10T09:35:51;2.30;;;1.65;;
62463;SDS011;48512;48.552;9.380;2023-05-10T09:38:17;2.92;;;1.10;;
62463;SDS011;48512;48.552;9.380;2023-05-10T09:40:50;1.40;;;1.30;;
62463;SDS011;48512;48.552;9.380;2023-05-10T09:43:22;1.73;;;1.10;;
62463;SDS011;48512;48.552;9.380;2023-05-10T09:45:48;1.98;;;1.10;;
62463;SDS011;48512;48.552;9.380;2023-05-10T09:48:17;0.82;;;0.82;;
62463;SDS011;48512;48.552;9.380;2023-05-10T09:50:43;2.17;;;1.20;;
62463;SDS011;48512;48.552;9.380;2023-05-10T09:53:09;3.10;;;2.50;;
62463;SDS011;48512;48.552;9.380;2023-05-10T09:58:10;2.22;;;1.15;;
62463;SDS011;48512;48.552;9.380;2023-05-10T10:00:37;1.35;;;1.10;;
62463;SDS011;48512;48.552;9.380;2023-05-10T10:03:18;1.27;;;1.10;;
62463;SDS011;48512;48.552;9.380;2023-05-10T10:05:46;1.60;;;1.10;;
62463;SDS011;48512;48.552;9.380;2023-05-10T10:08:13;1.50;;;1.30;;
62463;SDS011;48512;48.552;9.380;2023-05-10T10:10:41;1.20;;;1.10;;
62463;SDS011;48512;48.552;9.380;2023-05-10T10:13:09;1.25;;;1.00;;
62463;SDS011;48512;48.552;9.380;2023-05-10T10:15:36;1.20;;;1.10;;
62463;SDS011;48512;48.552;9.380;2023-05-10T10:18:03;2.45;;;1.00;;
62463;SDS011;48512;48.552;9.380;2023-05-10T10:20:31;2.33;;;1.10;;
62463;SDS011;48512;48.552;9.380;2023-05-10T10:22:57;1.05;;;0.70;;
62463;SDS011;48512;48.552;9.380;2023-05-10T10:25:23;1.20;;;0.85;;
62463;SDS011;48512;48.552;9.380;2023-05-10T10:35:38;2.30;;;1.20;;
62463;SDS011;48512;48.552;9.380;2023-05-10T10:38:07;2.92;;;1.50;;
62463;SDS011;48512;48.552;9.380;2023-05-10T10:40:34;2.90;;;1.55;;
62463;SDS011;48512;48.552;9.380;2023-05-10T10:48:50;1.42;;;1.20;;
62463;SDS011;48512;48.552;9.380;2023-05-10T10:51:37;1.33;;;1.00;;
62463;SDS011;48512;48.552;9.380;2023-05-10T10:54:10;2.63;;;0.95;;
62463;SDS011;48512;48.552;9.380;2023-05-10T10:56:37;1.90;;;1.27;;
62463;SDS011;48512;48.552;9.380;2023-05-10T10:59:03;2.50;;;1.30;;
62463;SDS011;48512;48.552;9.380;2023-05-10T11:01:33;1.17;;;1.00;;
62463;SDS011;48512;48.552;9.380;2023-05-10T11:06:34;2.03;;;1.02;;
62463;SDS011;48512;48.552;9.380;2023-05-10T11:09:07;0.98;;;0.80;;
62463;SDS011;48512;48.552;9.380;2023-05-10T11:11:35;1.38;;;1.10;;
62463;SDS011;48512;48.552;9.380;2023-05-10T11:14:03;1.35;;;0.98;;
62463;SDS011;48512;48.552;9.380;2023-05-10T11:16:43;1.83;;;1.07;;
62463;SDS011;48512;48.552;9.380;2023-05-10T11:24:36;1.63;;;0.90;;
62463;SDS011;48512;48.552;9.380;2023-05-10T11:27:02;0.95;;;0.80;;
62463;SDS011;48512;48.552;9.380;2023-05-10T11:29:29;0.82;;;0.82;;
62463;SDS011;48512;48.552;9.380;2023-05-10T11:31:58;1.48;;;0.93;;
62463;SDS011;48512;48.552;9.380;2023-05-10T11:36:53;2.15;;;0.90;;
62463;SDS011;48512;48.552;9.380;2023-05-10T11:39:20;4.20;;;1.30;;
62463;SDS011;48512;48.552;9.380;2023-05-10T11:41:48;1.92;;;0.90;;
62463;SDS011;48512;48.552;9.380;2023-05-10T11:44:15;1.30;;;1.10;;
62463;SDS011;48512;48.552;9.380;2023-05-10T11:46:41;1.20;;;1.00;;
62463;SDS011;48512;48.552;9.380;2023-05-10T11:49:07;2.50;;;0.98;;
62463;SDS011;48512;48.552;9.380;2023-05-10T11:51:34;1.95;;;1.30;;
62463;SDS011;48512;48.552;9.380;2023-05-10T11:54:08;2.60;;;1.38;;
62463;SDS011;48512;48.552;9.380;2023-05-10T11:56:36;1.38;;;1.20;;
62463;SDS011;48512;48.552;9.380;2023-05-10T11:59:03;1.42;;;1.20;;
62463;SDS011;48512;48.552;9.380;2023-05-10T12:01:30;3.33;;;1.10;;
62463;SDS011;48512;48.552;9.380;2023-05-10T12:03:57;2.42;;;1.10;;
62463;SDS011;48512;48.552;9.380;2023-05-10T12:06:25;2.65;;;1.17;;
62463;SDS011;48512;48.552;9.380;2023-05-10T12:08:53;1.45;;;1.20;;
62463;SDS011;48512;48.552;9.380;2023-05-10T12:11:19;1.60;;;1.50;;
62463;SDS011;48512;48.552;9.380;2023-05-10T12:13:47;2.78;;;1.42;;
62463;SDS011;48512;48.552;9.380;2023-05-10T12:16:17;3.47;;;1.30;;
62463;SDS011;48512;48.552;9.380;2023-05-10T12:18:44;5.55;;;1.40;;
62463;SDS011;48512;48.552;9.380;2023-05-10T12:21:11;6.82;;;1.60;;
62463;SDS011;48512;48.552;9.380;2023-05-10T12:23:38;5.25;;;1.60;;
62463;SDS011;48512;48.552;9.380;2023-05-10T12:26:05;3.50;;;1.52;;
62463;SDS011;48512;48.552;9.380;2023-05-10T12:28:32;3.35;;;1.35;;
62463;SDS011;48512;48.552;9.380;2023-05-10T12:30:59;1.95;;;1.20;;
62463;SDS011;48512;48.552;9.380;2023-05-10T12:33:25;1.85;;;1.23;;
62463;SDS011;48512;48.552;9.380;2023-05-10T12:35:54;1.50;;;1.27;;
62463;SDS011;48512;48.552;9.380;2023-05-10T12:38:25;3.17;;;1.23;;
62463;SDS011;48512;48.552;9.380;2023-05-10T12:40:52;2.95;;;1.60;;
62463;SDS011;48512;48.552;9.380;2023-05-10T12:43:18;1.85;;;1.30;;
62463;SDS011;48512;48.552;9.380;2023-05-10T12:45:44;4.68;;;1.50;;
62463;SDS011;48512;48.552;9.380;2023-05-10T12:48:13;1.50;;;1.23;;
62463;SDS011;48512;48.552;9.380;2023-05-10T12:50:40;1.30;;;1.20;;
62463;SDS011;48512;48.552;9.380;2023-05-10T12:53:06;3.00;;;1.73;;
62463;SDS011;48512;48.552;9.380;2023-05-10T12:55:33;3.40;;;1.67;;
62463;SDS011;48512;48.552;9.380;2023-05-10T12:57:59;2.90;;;1.70;;
62463;SDS011;48512;48.552;9.380;2023-05-10T13:00:25;2.85;;;1.75;;
62463;SDS011;48512;48.552;9.380;2023-05-10T13:02:51;5.88;;;1.75;;
62463;SDS011;48512;48.552;9.380;2023-05-10T13:05:17;1.58;;;1.48;;
62463;SDS011;48512;48.552;9.380;2023-05-10T13:07:44;4.03;;;1.98;;
62463;SDS011;48512;48.552;9.380;2023-05-10T13:10:10;2.20;;;1.55;;
62463;SDS011;48512;48.552;9.380;2023-05-10T13:12:37;2.90;;;1.60;;
62463;SDS011;48512;48.552;9.380;2023-05-10T13:15:03;3.45;;;1.98;;
62463;SDS011;48512;48.552;9.380;2023-05-10T13:17:30;3.60;;;1.52;;
62463;SDS011;48512;48.552;9.380;2023-05-10T13:19:56;1.60;;;1.50;;
62463;SDS011;48512;48.552;9.380;2023-05-10T13:22:22;2.95;;;1.70;;
62463;SDS011;48512;48.552;9.380;2023-05-10T13:24:48;2.67;;;1.45;;
62463;SDS011;48512;48.552;9.380;2023-05-10T13:27:14;4.18;;;1.52;;
62463;SDS011;48512;48.552;9.380;2023-05-10T13:29:41;3.25;;;1.52;;
62463;SDS011;48512;48.552;9.380;2023-05-10T13:32:07;2.67;;;1.45;;
62463;SDS011;48512;48.552;9.380;2023-05-10T13:34:33;4.35;;;1.80;;
62463;SDS011;48512;48.552;9.380;2023-05-10T13:37:01;2.53;;;1.40;;
62463;SDS011;48512;48.552;9.380;2023-05-10T13:39:27;6.43;;;1.52;;
62463;SDS011;48512;48.552;9.380;2023-05-10T13:41:56;3.33;;;1.27;;
62463;SDS011;48512;48.552;9.380;2023-05-10T13:44:22;6.70;;;1.40;;
62463;SDS011;48512;48.552;9.380;2023-05-10T13:46:49;5.20;;;1.65;;
62463;SDS011;48512;48.552;9.380;2023-05-10T13:49:15;4.10;;;1.60;;
62463;SDS011;48512;48.552;9.380;2023-05-10T13:51:41;2.33;;;1.30;;
62463;SDS011;48512;48.552;9.380;2023-05-10T13:54:08;2.20;;;1.30;;
62463;SDS011;48512;48.552;9.380;2023-05-10T13:56:34;2.80;;;1.50;;
62463;SDS011;48512;48.552;9.380;2023-05-10T13:59:00;3.40;;;2.10;;
62463;SDS011;48512;48.552;9.380;2023-05-10T14:01:27;2.78;;;1.52;;
62463;SDS011;48512;48.552;9.380;2023-05-10T14:03:53;3.10;;;1.80;;
62463;SDS011;48512;48.552;9.380;2023-05-10T14:06:20;2.47;;;1.90;;
62463;SDS011;48512;48.552;9.380;2023-05-10T14:08:46;3.00;;;1.10;;
62463;SDS011;48512;48.552;9.380;2023-05-10T14:11:12;4.22;;;2.17;;
62463;SDS011;48512;48.552;9.380;2023-05-10T14:13:38;2.58;;;1.30;;
62463;SDS011;48512;48.552;9.380;2023-05-10T14:16:04;1.42;;;1.20;;
62463;SDS011;48512;48.552;9.380;2023-05-10T14:18:31;1.70;;;1.23;;
62463;SDS011;48512;48.552;9.380;2023-05-10T14:20:57;4.50;;;1.33;;
62463;SDS011;48512;48.552;9.380;2023-05-10T14:23:24;2.15;;;1.25;;
62463;SDS011;48512;48.552;9.380;2023-05-10T14:25:51;2.42;;;1.13;;
62463;SDS011;48512;48.552;9.380;2023-05-10T14:28:18;3.00;;;1.20;;
62463;SDS011;48512;48.552;9.380;2023-05-10T14:30:44;4.50;;;1.40;;
62463;SDS011;48512;48.552;9.380;2023-05-10T14:33:11;2.35;;;1.25;;
62463;SDS011;48512;48.552;9.380;2023-05-10T14:35:37;3.10;;;1.40;;
62463;SDS011;48512;48.552;9.380;2023-05-10T14:38:03;4.93;;;1.52;;
62463;SDS011;48512;48.552;9.380;2023-05-10T14:40:29;6.85;;;1.83;;
62463;SDS011;48512;48.552;9.380;2023-05-10T14:42:56;8.55;;;1.88;;
62463;SDS011;48512;48.552;9.380;2023-05-10T14:45:22;5.32;;;2.08;;
62463;SDS011;48512;48.552;9.380;2023-05-10T14:47:49;3.08;;;1.48;;
62463;SDS011;48512;48.552;9.380;2023-05-10T14:50:15;3.40;;;1.20;;
62463;SDS011;48512;48.552;9.380;2023-05-10T14:52:45;5.57;;;1.38;;
62463;SDS011;48512;48.552;9.380;2023-05-10T14:55:11;4.72;;;1.30;;
62463;SDS011;48512;48.552;9.380;2023-05-10T14:57:37;2.03;;;1.30;;
62463;SDS011;48512;48.552;9.380;2023-05-10T15:00:03;1.70;;;1.20;;
62463;SDS011;48512;48.552;9.380;2023-05-10T15:02:31;3.70;;;1.48;;
62463;SDS011;48512;48.552;9.380;2023-05-10T15:04:57;4.50;;;1.67;;
62463;SDS011;48512;48.552;9.380;2023-05-10T15:07:23;3.65;;;1.52;;
62463;SDS011;48512;48.552;9.380;2023-05-10T15:09:50;4.63;;;1.85;;
62463;SDS011;48512;48.552;9.380;2023-05-10T15:12:17;4.00;;;1.90;;
62463;SDS011;48512;48.552;9.380;2023-05-10T15:14:44;5.15;;;1.65;;
62463;SDS011;48512;48.552;9.380;2023-05-10T15:17:10;2.63;;;1.20;;
62463;SDS011;48512;48.552;9.380;2023-05-10T15:19:36;3.75;;;1.63;;
62463;SDS011;48512;48.552;9.380;2023-05-10T15:22:03;4.22;;;2.60;;
62463;SDS011;48512;48.552;9.380;2023-05-10T15:24:30;1.98;;;1.42;;
62463;SDS011;48512;48.552;9.380;2023-05-10T15:26:56;3.95;;;1.35;;
62463;SDS011;48512;48.552;9.380;2023-05-10T15:29:22;3.97;;;1.60;;
62463;SDS011;48512;48.552;9.380;2023-05-10T15:31:49;5.68;;;1.50;;
62463;SDS011;48512;48.552;9.380;2023-05-10T15:34:16;2.83;;;1.40;;
62463;SDS011;48512;48.552;9.380;2023-05-10T15:36:43;6.07;;;1.70;;
62463;SDS011;48512;48.552;9.380;2023-05-10T15:39:10;5.85;;;1.90;;